Time;durP1;ratioP1;P1;durP2;ratioP2;P2;SDS_P1;SDS_P2;PMS_P1;PMS_P2;Temp;Humidity;BMP_temperature;BMP_pressure;BME280_temperature;BME280_humidity;BME280_pressure;Samples;Min_cycle;Max_cycle;Signal;HPM_P1;HPM_P2
2022/10/20 00:01:53;;;;;;;15.00;10.02;;;;;;;8.27;100.00;101507.50;5054379;28;20039;-57
2022/10/20 00:04:19;;;;;;;13.43;9.10;;;;;;;8.73;100.00;101580.38;5053057;28;20048;-60
2022/10/20 00:06:44;;;;;;;12.52;8.85;;;;;;;8.60;100.00;101557.81;5052801;28;20095;-57
2022/10/20 00:09:09;;;;;;;12.40;8.93;;;;;;;8.49;100.00;101539.59;5054157;28;20028;-57
2022/10/20 00:11:35;;;;;;;10.85;8.68;;;;;;;8.45;100.00;101525.63;5054280;28;20121;-60
2022/10/20 00:14:01;;;;;;;12.38;9.00;;;;;;;8.44;100.00;101517.78;5054179;28;20476;-59
2022/10/20 00:16:28;;;;;;;13.93;8.98;;;;;;;8.67;100.00;101554.22;5054199;28;20472;-59
2022/10/20 00:18:55;;;;;;;11.13;8.73;;;;;;;8.36;100.00;101490.78;5054053;28;20062;-59
2022/10/20 00:21:23;;;;;;;13.43;9.18;;;;;;;8.72;100.00;101561.16;5052087;28;20342;-58
2022/10/20 00:23:49;;;;;;;10.02;9.02;;;;;;;8.75;100.00;101562.88;5046946;28;20092;-55
2022/10/20 00:26:17;;;;;;;11.27;9.25;;;;;;;8.74;100.00;101562.00;5052102;28;20032;-60
2022/10/20 00:28:43;;;;;;;13.43;9.18;;;;;;;8.38;100.00;101507.34;5045064;28;20052;-58
2022/10/20 00:31:08;;;;;;;11.55;8.95;;;;;;;8.38;100.00;101496.84;5052308;28;20080;-59
2022/10/20 00:33:34;;;;;;;16.00;9.43;;;;;;;8.70;100.00;101559.44;5048805;28;20088;-60
2022/10/20 00:36:04;;;;;;;12.98;9.63;;;;;;;8.29;100.00;101484.72;5049101;28;20037;-59
2022/10/20 00:38:29;;;;;;;14.43;10.00;;;;;;;8.22;100.00;101454.22;5049081;28;20039;-61
2022/10/20 00:40:55;;;;;;;11.88;9.40;;;;;;;8.66;100.00;101547.22;5047558;28;20415;-59
2022/10/20 00:43:21;;;;;;;12.93;9.65;;;;;;;8.26;100.00;101473.41;5048590;28;20045;-62
2022/10/20 00:45:53;;;;;;;16.05;10.02;;;;;;;8.58;100.00;101528.94;5033253;28;20044;-61
2022/10/20 00:48:22;;;;;;;15.32;10.63;;;;;;;8.58;100.00;101525.47;5052000;28;20086;-58
2022/10/20 00:50:49;;;;;;;15.57;9.93;;;;;;;8.59;100.00;101521.94;5052069;28;20058;-57
2022/10/20 00:53:15;;;;;;;16.05;10.30;;;;;;;8.55;100.00;101517.66;5048593;28;20128;-61
2022/10/20 00:55:44;;;;;;;13.13;10.48;;;;;;;8.52;100.00;101526.44;5031837;28;20406;-56
2022/10/20 00:58:10;;;;;;;15.23;11.05;;;;;;;8.58;100.00;101531.56;5051653;28;20166;-58
2022/10/20 01:00:37;;;;;;;19.35;10.70;;;;;;;8.42;100.00;101502.06;5051563;28;20127;-61
2022/10/20 01:03:03;;;;;;;13.20;10.05;;;;;;;8.53;100.00;101527.28;5052870;28;20025;-57
2022/10/20 01:05:28;;;;;;;13.68;11.25;;;;;;;8.55;100.00;101531.66;5051747;28;20035;-60
2022/10/20 01:07:53;;;;;;;11.82;10.32;;;;;;;8.55;100.00;101517.66;5053305;28;20048;-57
2022/10/20 01:10:19;;;;;;;16.48;11.35;;;;;;;8.14;100.00;101447.34;5052634;28;20111;-60
2022/10/20 01:12:54;;;;;;;13.40;11.13;;;;;;;8.51;100.00;101515.94;5068333;28;20032;-60
2022/10/20 01:15:38;;;;;;;14.15;11.07;;;;;;;8.50;100.00;101517.69;5052101;28;20437;-56
2022/10/20 01:18:47;;;;;;;18.27;11.38;;;;;;;8.08;100.00;101442.16;5050365;28;20036;-57
2022/10/20 01:21:31;;;;;;;18.00;12.20;;;;;;;8.43;100.00;101497.69;5051468;28;20393;-60
2022/10/20 01:24:05;;;;;;;17.73;12.15;;;;;;;8.44;100.00;101488.91;5052309;28;20033;-57
2022/10/20 01:26:40;;;;;;;20.00;11.40;;;;;;;8.41;100.00;101483.69;5052607;28;20068;-57
2022/10/20 01:29:35;;;;;;;14.85;11.80;;;;;;;8.41;100.00;101466.22;5052388;28;20060;-55
2022/10/20 01:32:18;;;;;;;16.08;12.15;;;;;;;8.02;100.00;101411.66;5050975;28;20035;-61
2022/10/20 01:34:44;;;;;;;20.65;12.30;;;;;;;8.33;100.00;101473.31;5031157;28;20506;-59
2022/10/20 01:37:28;;;;;;;14.30;11.75;;;;;;;8.29;100.00;101471.63;5042465;28;20885;-58
2022/10/20 01:40:07;;;;;;;15.50;11.45;;;;;;;8.21;100.00;101444.59;5047576;28;20123;-57
2022/10/20 01:42:33;;;;;;;18.65;12.40;;;;;;;8.29;100.00;101469.00;5035549;28;20032;-55
2022/10/20 01:45:00;;;;;;;15.27;12.75;;;;;;;8.26;100.00;101468.16;5051172;28;20028;-58
2022/10/20 01:47:27;;;;;;;12.95;11.60;;;;;;;8.19;100.00;101462.13;5047576;28;20111;-57
2022/10/20 01:49:53;;;;;;;18.48;12.57;;;;;;;7.90;100.00;101410.06;5046858;28;20095;-57
2022/10/20 01:52:20;;;;;;;19.50;13.45;;;;;;;8.14;100.00;101457.81;5052091;28;20447;-58
2022/10/20 01:54:45;;;;;;;22.42;13.52;;;;;;;8.14;100.00;101440.34;5047396;28;20109;-57
2022/10/20 01:57:29;;;;;;;20.60;12.95;;;;;;;8.15;100.00;101430.69;5020642;28;20242;-59
2022/10/20 02:00:03;;;;;;;17.63;12.88;;;;;;;8.16;100.00;101435.94;5047907;28;20037;-57
2022/10/20 02:02:40;;;;;;;16.45;12.93;;;;;;;7.87;100.00;101369.91;5063507;28;20037;-60
2022/10/20 02:05:27;;;;;;;21.02;13.45;;;;;;;8.15;100.00;101417.56;5039619;28;20531;-56
2022/10/20 02:08:04;;;;;;;20.55;12.98;;;;;;;7.73;100.00;101346.50;5051899;28;20044;-57
2022/10/20 02:10:36;;;;;;;16.55;13.75;;;;;;;7.73;100.00;101343.88;5031588;28;20030;-59
2022/10/20 02:13:04;;;;;;;19.05;13.88;;;;;;;8.11;100.00;101405.41;5035991;28;20029;-58
2022/10/20 02:15:30;;;;;;;17.70;13.02;;;;;;;8.08;100.00;101405.47;5050204;28;20032;-58
2022/10/20 02:18:02;;;;;;;17.73;12.68;;;;;;;8.05;100.00;101395.00;5050106;28;20044;-58
2022/10/20 02:20:28;;;;;;;18.83;13.82;;;;;;;7.79;100.00;101340.31;5030347;28;20045;-57
2022/10/20 02:22:55;;;;;;;18.02;14.73;;;;;;;8.08;100.00;101394.97;5054732;28;20052;-58
2022/10/20 02:25:20;;;;;;;20.77;14.40;;;;;;;8.09;100.00;101376.56;5050484;28;20123;-58
2022/10/20 02:27:46;;;;;;;20.60;14.38;;;;;;;7.75;100.00;101305.41;5051762;28;20123;-60
2022/10/20 02:30:14;;;;;;;17.08;15.05;;;;;;;7.83;100.00;101307.91;5035248;28;20119;-59
2022/10/20 02:32:41;;;;;;;24.17;15.57;;;;;;;7.66;100.00;101266.22;5054093;28;20037;-59
2022/10/20 02:35:12;;;;;;;22.05;15.40;;;;;;;7.79;100.00;101272.19;5053198;28;20032;-55
2022/10/20 02:37:37;;;;;;;20.42;14.32;;;;;;;7.73;100.00;101270.50;5054001;28;20511;-58
2022/10/20 02:40:03;;;;;;;22.50;14.88;;;;;;;8.10;100.00;101338.13;5054097;28;20037;-58
2022/10/20 02:42:28;;;;;;;19.23;14.73;;;;;;;8.07;100.00;101328.56;5052998;28;20090;-57
2022/10/20 02:44:54;;;;;;;21.63;16.25;;;;;;;7.81;100.00;101275.63;5054085;28;20480;-59
2022/10/20 02:47:21;;;;;;;23.27;15.20;;;;;;;8.08;100.00;101325.06;5054346;28;20033;-59
2022/10/20 02:49:46;;;;;;;20.73;15.27;;;;;;;8.06;100.00;101318.94;5054116;28;20037;-59
2022/10/20 02:52:12;;;;;;;21.55;16.38;;;;;;;8.07;100.00;101311.94;5052761;28;20404;-60
2022/10/20 02:54:37;;;;;;;21.95;15.30;;;;;;;7.71;100.00;101248.69;5054061;28;20120;-58
2022/10/20 02:57:02;;;;;;;23.52;16.48;;;;;;;7.71;100.00;101239.94;5052680;28;20366;-59
2022/10/20 02:59:28;;;;;;;23.88;17.10;;;;;;;7.71;100.00;101243.44;5053775;28;20044;-59
2022/10/20 03:01:53;;;;;;;21.45;17.40;;;;;;;8.16;100.00;101304.81;5054031;28;20029;-58
2022/10/20 03:04:18;;;;;;;25.55;17.70;;;;;;;8.09;100.00;101278.69;5053853;28;20532;-58
2022/10/20 03:06:44;;;;;;;27.30;18.23;;;;;;;8.15;100.00;101286.47;5053829;28;20033;-59
2022/10/20 03:09:09;;;;;;;29.45;17.98;;;;;;;8.26;100.00;101287.19;5053669;28;20029;-55
2022/10/20 03:11:34;;;;;;;25.00;17.00;;;;;;;8.13;100.00;101268.16;5053677;28;20116;-56
2022/10/20 03:14:00;;;;;;;25.88;18.55;;;;;;;7.91;100.00;101219.53;5053579;28;20044;-58
2022/10/20 03:16:25;;;;;;;28.10;18.30;;;;;;;8.32;100.00;101277.47;5051291;28;20032;-59
2022/10/20 03:18:51;;;;;;;23.90;17.88;;;;;;;8.28;100.00;101264.47;5053957;28;20195;-59
2022/10/20 03:21:16;;;;;;;27.05;18.05;;;;;;;8.11;100.00;101224.50;5048603;28;20484;-60
2022/10/20 03:23:41;;;;;;;27.55;18.95;;;;;;;8.38;100.00;101266.03;5046600;28;20510;-58
2022/10/20 03:26:10;;;;;;;27.08;18.45;;;;;;;8.31;100.00;101254.78;5053453;28;20526;-57
2022/10/20 03:28:35;;;;;;;29.05;19.05;;;;;;;8.39;100.00;101258.16;5053403;28;20045;-59
2022/10/20 03:31:01;;;;;;;25.48;19.13;;;;;;;8.07;100.00;101186.97;5059969;28;121296;-58
2022/10/20 03:33:26;;;;;;;31.15;18.58;;;;;;;8.04;100.00;101184.41;5054504;28;20040;-57
2022/10/20 03:35:51;;;;;;;28.55;19.70;;;;;;;8.17;100.00;101193.78;5053338;28;20053;-59
2022/10/20 03:38:17;;;;;;;24.80;18.98;;;;;;;8.52;100.00;101244.81;5053899;28;20096;-59
2022/10/20 03:40:42;;;;;;;27.00;19.73;;;;;;;8.58;100.00;101255.22;5054171;28;20498;-59
2022/10/20 03:43:07;;;;;;;26.83;19.50;;;;;;;8.60;100.00;101256.91;5054049;28;20555;-59
2022/10/20 03:45:33;;;;;;;30.13;19.52;;;;;;;8.64;100.00;101255.09;5054622;28;20045;-58
2022/10/20 03:47:58;;;;;;;26.95;18.98;;;;;;;8.51;100.00;101216.84;5054571;28;20124;-57
2022/10/20 03:50:23;;;;;;;28.58;20.42;;;;;;;8.36;100.00;101176.00;5052646;28;20492;-59
2022/10/20 03:52:50;;;;;;;28.23;19.92;;;;;;;8.78;100.00;101246.09;5054334;28;20037;-60
2022/10/20 03:55:16;;;;;;;28.95;19.40;;;;;;;8.81;100.00;101235.53;5054229;28;20029;-58
2022/10/20 03:57:42;;;;;;;29.00;19.55;;;;;;;8.45;100.00;101168.84;5049582;28;20034;-58
2022/10/20 04:00:07;;;;;;;28.50;19.52;;;;;;;8.86;100.00;101231.06;5050101;28;20051;-60
2022/10/20 04:02:37;;;;;;;30.65;20.42;;;;;;;8.55;100.00;101177.41;5054047;28;20037;-58
2022/10/20 04:05:03;;;;;;;37.13;21.95;;;;;;;8.84;100.00;101229.34;5053878;28;20029;-59
2022/10/20 04:07:29;;;;;;;28.95;20.48;;;;;;;8.58;100.00;101193.06;5053952;28;20036;-59
2022/10/20 04:09:55;;;;;;;27.95;19.85;;;;;;;8.60;100.00;101183.44;5053730;28;20029;-58
2022/10/20 04:12:20;;;;;;;31.20;19.42;;;;;;;8.65;100.00;101175.47;5053744;28;20048;-56
2022/10/20 04:14:46;;;;;;;26.25;19.42;;;;;;;9.03;100.00;101230.72;5053671;28;20465;-59
2022/10/20 04:17:11;;;;;;;28.30;19.52;;;;;;;8.67;100.00;101158.78;5051258;28;20037;-56
2022/10/20 04:19:37;;;;;;;29.42;20.42;;;;;;;8.77;100.00;101188.34;5053798;28;20047;-61
2022/10/20 04:22:02;;;;;;;29.40;18.90;;;;;;;8.99;100.00;101232.53;5053275;28;20037;-58
2022/10/20 04:24:27;;;;;;;26.27;19.00;;;;;;;8.52;100.00;101159.13;5053580;28;20435;-59
2022/10/20 04:26:52;;;;;;;33.10;20.50;;;;;;;8.64;100.00;101173.75;5053869;28;20083;-58
2022/10/20 04:29:18;;;;;;;29.48;20.45;;;;;;;8.99;100.00;101221.16;5053097;28;20055;-60
2022/10/20 04:31:43;;;;;;;28.70;20.83;;;;;;;9.05;100.00;101207.91;5053963;28;20095;-60
2022/10/20 04:34:09;;;;;;;33.53;20.48;;;;;;;9.05;100.00;101207.91;5053550;28;20041;-59
2022/10/20 04:36:34;;;;;;;29.42;20.77;;;;;;;8.75;100.00;101130.66;5053428;28;20041;-59
2022/10/20 04:38:59;;;;;;;30.95;21.73;;;;;;;8.83;100.00;101128.75;5053160;28;20021;-55
2022/10/20 04:41:24;;;;;;;26.42;20.38;;;;;;;9.16;100.00;101184.94;5053100;28;20041;-58
2022/10/20 04:43:52;;;;;;;29.08;21.15;;;;;;;8.79;100.00;101111.31;5053141;28;20484;-58
2022/10/20 04:46:17;;;;;;;28.48;20.63;;;;;;;9.06;100.00;101167.63;5053186;28;20594;-60
2022/10/20 04:48:43;;;;;;;27.75;19.73;;;;;;;9.09;100.00;101178.06;5053060;28;20048;-59
2022/10/20 04:51:11;;;;;;;29.30;22.10;;;;;;;9.14;100.00;101191.97;5052211;28;20117;-58
2022/10/20 04:53:36;;;;;;;30.02;21.38;;;;;;;9.10;100.00;101179.81;5048406;28;20440;-57
2022/10/20 04:56:03;;;;;;;28.55;20.25;;;;;;;9.16;100.00;101198.06;5049598;28;20037;-59
2022/10/20 04:58:28;;;;;;;27.88;19.77;;;;;;;9.24;100.00;101204.03;5051926;28;20071;-57
2022/10/20 05:01:03;;;;;;;29.58;20.70;;;;;;;8.85;100.00;101134.81;5051798;28;20049;-60
2022/10/20 05:03:28;;;;;;;29.85;20.25;;;;;;;9.22;100.00;101197.94;5052784;28;20124;-55
2022/10/20 05:05:53;;;;;;;30.15;21.10;;;;;;;9.24;100.00;101190.88;5052783;28;20583;-61
2022/10/20 05:08:18;;;;;;;29.35;20.83;;;;;;;9.24;100.00;101167.25;5052784;28;20060;-59
2022/10/20 05:10:44;;;;;;;33.63;22.25;;;;;;;8.86;100.00;101085.81;5053065;28;20103;-61
2022/10/20 05:13:09;;;;;;;34.25;21.35;;;;;;;9.17;100.00;101128.88;5052522;28;20060;-62
2022/10/20 05:15:34;;;;;;;30.88;21.67;;;;;;;9.24;100.00;101142.75;5052744;28;20063;-57
2022/10/20 05:18:00;;;;;;;30.55;21.73;;;;;;;9.24;100.00;101151.50;5052571;28;20036;-59
2022/10/20 05:20:25;;;;;;;34.28;22.92;;;;;;;8.83;100.00;101080.63;5035881;28;20399;-57
2022/10/20 05:22:50;;;;;;;31.02;22.40;;;;;;;8.22;100.00;100961.19;5047985;28;20053;-57
2022/10/20 05:25:16;;;;;;;29.13;21.35;;;;;;;9.27;100.00;101147.94;5042929;28;20083;-58
2022/10/20 05:27:41;;;;;;;31.88;23.05;;;;;;;9.28;100.00;101144.41;5052611;28;20037;-59
2022/10/20 05:30:07;;;;;;;29.35;21.17;;;;;;;8.93;100.00;101061.16;5050803;28;20049;-55
2022/10/20 05:32:33;;;;;;;32.38;21.65;;;;;;;8.91;100.00;101058.56;5052439;28;20182;-60
2022/10/20 05:34:58;;;;;;;31.58;21.30;;;;;;;9.35;100.00;101130.22;5051179;28;20485;-59
2022/10/20 05:37:23;;;;;;;32.45;23.13;;;;;;;9.26;100.00;101107.66;5051134;28;20033;-60
2022/10/20 05:39:48;;;;;;;33.90;21.92;;;;;;;9.34;100.00;101118.00;5051872;28;20033;-60
2022/10/20 05:42:14;;;;;;;28.52;20.88;;;;;;;9.36;100.00;101122.31;5052545;28;20029;-59
2022/10/20 05:44:39;;;;;;;29.67;20.23;;;;;;;9.43;100.00;101110.75;5031106;28;20037;-58
2022/10/20 05:47:04;;;;;;;30.67;21.10;;;;;;;9.10;100.00;101056.38;5036658;28;20045;-58
2022/10/20 05:49:30;;;;;;;28.80;20.55;;;;;;;9.10;100.00;101031.88;5044468;28;20033;-54
2022/10/20 05:51:55;;;;;;;28.55;22.02;;;;;;;9.43;100.00;101102.00;5047635;28;20463;-57
2022/10/20 05:54:20;;;;;;;28.27;20.33;;;;;;;9.10;100.00;101040.63;5051372;28;20037;-58
2022/10/20 05:56:46;;;;;;;29.95;21.55;;;;;;;9.09;100.00;101036.28;5050541;28;20067;-59
2022/10/20 05:59:12;;;;;;;31.67;20.85;;;;;;;9.32;100.00;101083.00;5067714;28;20037;-57
2022/10/20 06:01:40;;;;;;;28.83;21.00;;;;;;;9.05;100.00;101051.22;5052347;28;20037;-59
2022/10/20 06:04:07;;;;;;;34.38;20.75;;;;;;;9.39;100.00;101103.88;5051975;28;20123;-59
2022/10/20 06:06:33;;;;;;;29.17;21.52;;;;;;;9.06;100.00;101046.84;5051801;28;20037;-58
2022/10/20 06:08:59;;;;;;;33.50;22.25;;;;;;;9.19;100.00;101074.56;5051771;28;20045;-54
2022/10/20 06:11:25;;;;;;;35.47;21.75;;;;;;;9.38;100.00;101085.50;5051799;28;20029;-58
2022/10/20 06:13:51;;;;;;;33.30;23.45;;;;;;;9.40;100.00;101092.44;5051810;28;20025;-57
2022/10/20 06:16:21;;;;;;;29.08;21.63;;;;;;;9.47;100.00;101112.41;5050732;28;20044;-55
2022/10/20 06:18:47;;;;;;;30.15;21.38;;;;;;;9.43;100.00;101086.22;5050407;28;20037;-58
2022/10/20 06:21:17;;;;;;;34.10;21.92;;;;;;;9.51;100.00;101106.22;5050336;28;20176;-59
2022/10/20 06:23:43;;;;;;;33.58;21.95;;;;;;;9.45;100.00;101080.06;5051381;28;20025;-61
2022/10/20 06:26:12;;;;;;;26.83;21.25;;;;;;;9.50;100.00;101086.06;5050400;28;20464;-57
2022/10/20 06:28:39;;;;;;;30.98;22.33;;;;;;;9.53;100.00;101088.63;5050473;28;20108;-56
2022/10/20 06:31:34;;;;;;;33.20;22.08;;;;;;;9.55;100.00;101089.44;5051516;28;20440;-59
2022/10/20 06:34:00;;;;;;;31.02;21.38;;;;;;;9.56;100.00;101088.56;5042750;28;20400;-58
2022/10/20 06:36:26;;;;;;;26.63;19.90;;;;;;;9.52;100.00;101072.88;5035292;28;20041;-59
2022/10/20 06:38:56;;;;;;;26.85;21.42;;;;;;;8.98;100.00;101017.28;5051673;28;20051;-59
2022/10/20 06:41:21;;;;;;;30.73;21.05;;;;;;;9.57;100.00;101123.59;5050091;28;20036;-58
2022/10/20 06:43:47;;;;;;;32.83;22.58;;;;;;;9.64;100.00;101122.53;5050390;28;20415;-59
2022/10/20 06:46:15;;;;;;;26.85;22.02;;;;;;;9.66;100.00;101125.97;5051430;28;20036;-60
2022/10/20 06:48:41;;;;;;;27.70;21.23;;;;;;;9.71;100.00;101095.19;5051223;28;20469;-59
2022/10/20 06:51:09;;;;;;;30.92;21.20;;;;;;;9.38;100.00;101033.81;5049767;28;20045;-58
2022/10/20 06:53:35;;;;;;;31.23;21.90;;;;;;;9.45;100.00;101040.66;5047050;28;20248;-59
2022/10/20 06:56:05;;;;;;;27.63;21.83;;;;;;;9.46;100.00;101034.47;5043577;28;20029;-57
2022/10/20 06:58:32;;;;;;;28.23;21.50;;;;;;;9.67;100.00;101050.63;5051379;28;20033;-58
2022/10/20 07:01:08;;;;;;;29.73;21.73;;;;;;;9.51;100.00;101013.38;5049914;28;20071;-59
2022/10/20 07:03:35;;;;;;;29.02;21.20;;;;;;;9.91;100.00;101081.53;5051495;28;20567;-59
2022/10/20 07:06:00;;;;;;;30.65;22.30;;;;;;;9.95;100.00;101083.22;5051522;28;20044;-59
2022/10/20 07:08:27;;;;;;;28.30;21.70;;;;;;;9.96;100.00;101072.63;5034790;28;20037;-59
2022/10/20 07:11:07;;;;;;;30.42;22.38;;;;;;;9.62;100.00;101000.81;5051341;28;20033;-58
2022/10/20 07:13:34;;;;;;;32.17;21.90;;;;;;;9.97;100.00;101052.47;5051983;28;20033;-60
2022/10/20 07:15:59;;;;;;;29.35;21.27;;;;;;;10.05;100.00;101084.69;5050007;28;20527;-59
2022/10/20 07:18:26;;;;;;;30.98;21.77;;;;;;;10.00;100.00;101062.91;5054935;28;20120;-57
2022/10/20 07:20:59;;;;;;;30.08;21.38;;;;;;;10.16;100.00;101085.28;5054611;28;20036;-58
2022/10/20 07:23:25;;;;;;;30.30;22.08;;;;;;;10.14;100.00;101066.06;5050312;28;20030;-59
2022/10/20 07:25:51;;;;;;;28.85;21.50;;;;;;;10.22;100.00;101064.06;5048745;28;20076;-58
2022/10/20 07:28:16;;;;;;;27.65;21.00;;;;;;;10.27;100.00;101058.69;5053111;28;20526;-59
2022/10/20 07:30:41;;;;;;;29.33;21.65;;;;;;;10.30;100.00;101059.50;5054179;28;20048;-57
2022/10/20 07:33:08;;;;;;;30.50;21.13;;;;;;;10.00;100.00;101002.41;5051573;28;20032;-59
2022/10/20 07:35:33;;;;;;;35.03;21.67;;;;;;;10.40;100.00;101058.31;5048611;28;20025;-58
2022/10/20 07:37:59;;;;;;;25.83;20.42;;;;;;;10.45;100.00;101061.66;5048055;28;20506;-59
2022/10/20 07:40:25;;;;;;;30.38;20.77;;;;;;;10.50;100.00;101056.28;5049049;28;20499;-60
2022/10/20 07:42:50;;;;;;;24.75;20.17;;;;;;;10.49;100.00;101042.25;5050493;28;20038;-59
2022/10/20 07:45:16;;;;;;;27.52;21.38;;;;;;;10.49;100.00;101029.09;5050210;28;20037;-63
2022/10/20 07:47:41;;;;;;;26.92;21.02;;;;;;;10.57;100.00;101036.75;5051021;28;20492;-55
2022/10/20 07:50:08;;;;;;;25.98;20.45;;;;;;;10.63;100.00;101055.88;5053066;28;20045;-61
2022/10/20 07:52:34;;;;;;;27.33;20.02;;;;;;;10.55;100.00;101046.47;5053118;28;20029;-60
2022/10/20 07:55:00;;;;;;;27.42;19.73;;;;;;;10.68;100.00;101063.66;5052940;28;20025;-59
2022/10/20 07:57:25;;;;;;;24.98;19.70;;;;;;;10.71;100.00;101068.84;5051273;28;20408;-58
2022/10/20 07:59:51;;;;;;;26.40;19.98;;;;;;;10.40;100.00;101000.41;5052190;28;20036;-58
2022/10/20 08:02:16;;;;;;;24.35;19.80;;;;;;;10.71;100.00;101053.03;5051736;28;20502;-60
2022/10/20 08:04:43;;;;;;;24.85;19.80;;;;;;;10.82;100.00;101069.38;5051808;28;20091;-58
2022/10/20 08:07:09;;;;;;;27.92;19.65;;;;;;;10.81;100.00;101067.66;5041957;28;20116;-58
2022/10/20 08:09:35;;;;;;;21.98;18.45;;;;;;;10.79;100.00;101050.16;5042449;28;20037;-57
2022/10/20 08:12:01;;;;;;;23.60;18.88;;;;;;;10.56;100.00;100995.56;5064894;28;20044;-59
2022/10/20 08:14:30;;;;;;;25.40;19.83;;;;;;;10.87;100.00;101050.78;5050504;28;20037;-59
2022/10/20 08:16:56;;;;;;;21.08;18.73;;;;;;;10.64;100.00;100993.56;5051959;28;20035;-58
2022/10/20 08:19:21;;;;;;;22.80;19.75;;;;;;;10.86;100.00;101028.03;5052461;28;20120;-60
2022/10/20 08:21:46;;;;;;;24.70;18.90;;;;;;;10.74;100.00;101009.03;5052037;28;20037;-57
2022/10/20 08:24:12;;;;;;;26.15;19.83;;;;;;;10.83;100.00;101007.88;5050574;28;20469;-59
2022/10/20 08:26:37;;;;;;;22.63;18.50;;;;;;;11.11;100.00;101058.81;5033164;28;20033;-60
2022/10/20 08:29:02;;;;;;;21.98;18.67;;;;;;;11.15;100.00;101055.16;5047255;28;20049;-59
2022/10/20 08:31:28;;;;;;;23.08;19.15;;;;;;;11.09;100.00;101026.38;5047160;28;20052;-59
2022/10/20 08:33:53;;;;;;;25.45;19.25;;;;;;;11.04;100.00;100988.78;5046413;28;20041;-61
2022/10/20 08:36:19;;;;;;;27.70;18.98;;;;;;;11.31;100.00;101039.75;5050748;28;20048;-59
2022/10/20 08:38:45;;;;;;;24.70;18.92;;;;;;;11.43;100.00;101027.94;5045154;28;20424;-59
2022/10/20 08:41:25;;;;;;;25.48;19.60;;;;;;;11.15;100.00;100983.16;5042486;28;20060;-58
2022/10/20 08:43:53;;;;;;;21.90;18.27;;;;;;;11.49;100.00;101027.75;5047663;28;20036;-58
2022/10/20 08:46:21;;;;;;;24.20;19.33;;;;;;;11.14;100.00;100955.97;5034526;28;20037;-60
2022/10/20 08:48:47;;;;;;;23.80;18.63;;;;;;;11.56;100.00;101024.84;5039469;28;20036;-59
2022/10/20 08:51:20;;;;;;;19.58;17.48;;;;;;;11.63;100.00;101013.19;5050042;28;20115;-58
2022/10/20 08:53:50;;;;;;;23.15;19.13;;;;;;;11.65;100.00;101013.97;5051273;28;20112;-59
2022/10/20 08:56:16;;;;;;;25.05;18.33;;;;;;;11.34;100.00;100965.00;5049896;28;20056;-58
2022/10/20 08:58:43;;;;;;;20.33;18.23;;;;;;;11.76;100.00;101018.94;5045130;28;20041;-59
2022/10/20 09:01:32;;;;;;;23.13;18.45;;;;;;;11.51;100.00;100962.63;5035784;28;20029;-59
2022/10/20 09:04:12;;;;;;;21.30;18.13;;;;;;;11.85;100.00;101024.75;5047612;28;20041;-56
2022/10/20 09:06:40;;;;;;;25.13;17.77;;;;;;;11.59;100.00;100968.50;5049497;28;20029;-57
2022/10/20 09:09:06;;;;;;;22.73;18.33;;;;;;;11.94;100.00;101013.00;5049862;28;20028;-57
2022/10/20 09:11:35;;;;;;;23.85;18.13;;;;;;;11.67;100.00;100966.50;5050943;28;20029;-58
2022/10/20 09:14:01;;;;;;;24.65;18.70;;;;;;;11.74;100.00;100974.16;5046493;28;20086;-60
2022/10/20 09:16:37;;;;;;;26.95;17.95;;;;;;;12.01;100.00;101006.63;5049868;28;20418;-60
2022/10/20 09:19:03;;;;;;;25.17;18.00;;;;;;;11.95;100.00;100991.00;5051061;28;20108;-59
2022/10/20 09:21:30;;;;;;;20.95;17.83;;;;;;;11.62;100.00;100929.72;5046280;28;20042;-58
2022/10/20 09:24:00;;;;;;;25.05;19.17;;;;;;;11.00;100.00;100820.38;5046939;28;20057;-57
2022/10/20 09:26:37;;;;;;;25.70;19.13;;;;;;;12.08;100.00;100983.50;5049697;28;20029;-59
2022/10/20 09:29:10;;;;;;;28.50;19.38;;;;;;;12.12;100.00;100978.06;5049741;28;20029;-59
2022/10/20 09:31:54;;;;;;;25.77;19.40;;;;;;;12.16;100.00;100971.75;5046535;28;20029;-56
2022/10/20 09:34:23;;;;;;;21.10;18.17;;;;;;;12.16;100.00;100973.53;5049832;28;20071;-57
2022/10/20 09:36:51;;;;;;;21.17;17.60;;;;;;;12.25;100.00;100968.78;5048967;28;20028;-58
2022/10/20 09:39:27;;;;;;;22.85;18.05;;;;;;;12.30;100.00;100969.47;5049476;28;20090;-58
2022/10/20 09:42:01;;;;;;;20.63;18.42;;;;;;;11.94;100.00;100904.84;5050978;28;20102;-60
2022/10/20 09:44:27;;;;;;;19.70;17.48;;;;;;;12.36;100.00;100961.31;5034449;28;20064;-59
2022/10/20 09:46:53;;;;;;;21.30;17.67;;;;;;;12.29;100.00;100943.97;5049550;28;20507;-57
2022/10/20 09:49:22;;;;;;;22.65;17.77;;;;;;;12.41;100.00;100987.53;5050464;28;20033;-59
2022/10/20 09:51:48;;;;;;;20.42;17.73;;;;;;;12.58;100.00;100989.56;5050596;28;20126;-60
2022/10/20 09:54:18;;;;;;;20.85;17.55;;;;;;;12.31;100.00;100934.25;5048027;28;20130;-59
2022/10/20 09:56:45;;;;;;;22.50;17.65;;;;;;;12.65;100.00;100986.63;5050782;28;20044;-56
2022/10/20 09:59:35;;;;;;;24.73;19.40;;;;;;;12.70;100.00;100955.59;5050619;28;20082;-59
2022/10/20 10:02:14;;;;;;;22.52;17.27;;;;;;;12.76;100.00;100952.72;5039320;28;20073;-59
2022/10/20 10:04:42;;;;;;;22.75;18.13;;;;;;;12.70;100.00;100926.53;5035500;28;20143;-57
2022/10/20 10:07:26;;;;;;;24.10;18.95;;;;;;;12.85;100.00;100956.78;5044015;28;20463;-58
2022/10/20 10:10:06;;;;;;;21.60;17.27;;;;;;;12.85;100.00;100943.56;5050302;28;20033;-58
2022/10/20 10:12:31;;;;;;;19.03;16.77;;;;;;;12.89;100.00;100942.53;5041478;28;20037;-58
2022/10/20 10:14:59;;;;;;;22.58;17.55;;;;;;;12.91;100.00;100940.69;5048844;28;20403;-59
2022/10/20 10:17:32;;;;;;;20.83;17.83;;;;;;;12.58;100.00;100878.66;5047200;28;20025;-60
2022/10/20 10:19:58;;;;;;;23.33;17.90;;;;;;;12.99;100.00;100949.16;5045501;28;20091;-59
2022/10/20 10:22:24;;;;;;;21.05;18.20;;;;;;;13.05;100.00;100929.56;5050337;28;20079;-59
2022/10/20 10:24:49;;;;;;;22.15;18.73;;;;;;;13.05;100.00;100916.34;5045609;28;20038;-59
2022/10/20 10:27:26;;;;;;;23.42;18.52;;;;;;;13.02;100.00;100893.53;5040571;28;20107;-60
2022/10/20 10:29:53;;;;;;;23.73;20.05;;;;;;;12.81;100.00;100823.13;5045520;28;20103;-59
2022/10/20 10:32:29;;;;;;;21.00;18.55;;;;;;;13.08;100.00;100839.59;5064660;28;20132;-61
2022/10/20 10:35:03;;;;;;;22.80;18.73;;;;;;;13.16;100.00;100899.16;5049430;28;20060;-60
2022/10/20 10:37:30;;;;;;;27.67;18.67;;;;;;;13.24;100.00;100898.81;5048981;28;20064;-59
2022/10/20 10:39:55;;;;;;;26.70;20.55;;;;;;;12.86;100.00;100821.13;5050025;28;20043;-59
2022/10/20 10:43:06;;;;;;;22.52;18.63;;;;;;;13.16;100.00;100883.31;5050454;28;20037;-61
2022/10/20 10:45:46;;;;;;;26.73;19.55;;;;;;;13.22;100.00;100876.91;5046133;28;20037;-58
2022/10/20 10:48:34;;;;;;;24.92;19.70;;;;;;;13.18;100.00;100862.09;5049410;28;20139;-60
2022/10/20 10:51:02;;;;;;;24.00;20.45;;;;;;;12.97;100.00;100810.97;5052921;28;20032;-59
2022/10/20 10:53:30;;;;;;;29.08;21.88;;;;;;;13.37;100.00;100868.28;5053322;28;20033;-58
2022/10/20 10:56:23;;;;;;;24.73;21.17;;;;;;;13.35;100.00;100863.06;5054235;28;20051;-60
2022/10/20 10:59:04;;;;;;;24.23;19.70;;;;;;;13.35;100.00;100854.28;5053838;28;20044;-58
2022/10/20 11:02:07;;;;;;;25.55;21.45;;;;;;;13.42;100.00;100847.81;5036028;28;20025;-59
2022/10/20 11:04:45;;;;;;;27.23;20.58;;;;;;;12.60;100.00;100708.69;5052493;28;20123;-58
2022/10/20 11:07:34;;;;;;;26.55;21.52;;;;;;;13.64;100.00;100864.44;5054034;28;20068;-60
2022/10/20 11:10:23;;;;;;;27.10;20.73;;;;;;;13.79;100.00;100854.97;5047571;28;20079;-59
2022/10/20 11:12:51;;;;;;;25.27;19.77;;;;;;;13.92;100.00;100854.31;5051269;28;20063;-58
2022/10/20 11:15:48;;;;;;;24.67;19.98;;;;;;;14.06;100.00;100866.94;5047872;28;20029;-59